< < Back
Terminal Aerodrome Forecast


Current Version              Previous Versions:   1  2  3  4  5  6  7  8  9  

Terminal Aerodrome Forecast

261
FTUS44 KHUN 271722
TAFHSV
TAF
KHSV 271722Z 2718/2818 04010KT P6SM SCT050
     FM280100 VRB03KT P6SM SKC
     FM281500 13008KT P6SM SCT050=



Latest METAR

879
SAUS80 KWBC 271900 RRB
MTRHSV
METAR KHSV 271853Z 05003KT 10SM SCT042 28/17 A3004 RMK AO2 SLP168
T02780172


USA.gov is the U.S. government's official web portal to all federal, state and local government web resources and services.